createdAt,value
2017-10-08T00:00:47.089Z,2.67
2017-10-08T00:03:15.334Z,2.70
2017-10-08T00:05:44.363Z,2.80
2017-10-08T00:08:12.601Z,2.50
2017-10-08T00:10:40.850Z,2.40
2017-10-08T00:13:09.173Z,3.70
2017-10-08T00:15:37.422Z,2.80
2017-10-08T00:18:05.666Z,2.60
2017-10-08T00:20:33.927Z,2.20
2017-10-08T00:23:02.183Z,2.23
2017-10-08T00:25:30.435Z,2.67
2017-10-08T00:27:58.907Z,2.00
2017-10-08T00:30:27.914Z,2.10
2017-10-08T00:32:56.959Z,2.30
2017-10-08T00:35:25.648Z,2.50
2017-10-08T00:37:53.886Z,2.90
2017-10-08T00:40:22.128Z,2.80
2017-10-08T00:42:50.390Z,2.27
2017-10-08T00:45:18.639Z,2.33
2017-10-08T00:47:47.014Z,2.30
2017-10-08T00:50:15.286Z,2.60
2017-10-08T00:52:43.527Z,4.67
2017-10-08T00:55:11.770Z,3.40
2017-10-08T00:57:40.118Z,2.10
2017-10-08T01:00:08.373Z,2.40
2017-10-08T01:02:36.623Z,2.57
2017-10-08T01:05:04.930Z,2.90
2017-10-08T01:07:33.162Z,2.63
2017-10-08T01:10:01.415Z,2.30
2017-10-08T01:12:29.702Z,2.10
2017-10-08T01:14:57.924Z,3.03
2017-10-08T01:17:26.964Z,2.53
2017-10-08T01:19:55.310Z,2.37
2017-10-08T01:22:23.569Z,2.47
2017-10-08T01:24:52.581Z,2.33
2017-10-08T01:27:20.854Z,2.60
2017-10-08T01:29:49.102Z,3.07
2017-10-08T01:32:17.347Z,2.77
2017-10-08T01:34:45.615Z,2.63
2017-10-08T01:37:13.866Z,1.60
2017-10-08T01:39:42.112Z,1.50
2017-10-08T01:42:10.514Z,2.23
2017-10-08T01:44:38.776Z,1.87
2017-10-08T01:47:07.790Z,1.93
2017-10-08T01:49:36.171Z,1.70
2017-10-08T01:52:04.415Z,3.10
2017-10-08T01:54:33.422Z,1.70
2017-10-08T01:57:02.746Z,1.93
2017-10-08T01:59:30.986Z,2.00
2017-10-08T02:01:59.247Z,3.03
2017-10-08T02:04:27.557Z,2.20
2017-10-08T02:06:56.568Z,3.50
2017-10-08T02:09:24.809Z,1.90
2017-10-08T02:11:53.088Z,2.03
2017-10-08T02:14:22.094Z,1.73
2017-10-08T02:16:50.337Z,2.10
2017-10-08T02:19:18.607Z,2.63
2017-10-08T02:21:46.843Z,2.20
2017-10-08T02:24:15.086Z,1.83
2017-10-08T02:26:43.648Z,1.80
2017-10-08T02:29:11.893Z,1.23
2017-10-08T02:31:40.126Z,1.53
2017-10-08T02:34:08.410Z,1.50
2017-10-08T02:36:37.427Z,1.57
2017-10-08T02:39:05.678Z,1.43
2017-10-08T02:41:33.963Z,1.57
2017-10-08T02:44:02.962Z,1.53
2017-10-08T02:46:31.205Z,1.10
2017-10-08T02:48:59.762Z,2.40
2017-10-08T02:51:28.292Z,2.10
2017-10-08T02:53:57.299Z,1.50
2017-10-08T02:56:25.567Z,1.87
2017-10-08T02:58:54.570Z,1.67
2017-10-08T03:01:22.810Z,1.67
2017-10-08T03:03:51.082Z,1.53
2017-10-08T03:06:19.327Z,1.20
2017-10-08T03:08:47.566Z,1.30
2017-10-08T03:11:16.784Z,1.20
2017-10-08T03:13:45.776Z,1.50
2017-10-08T03:16:14.204Z,1.53
2017-10-08T03:18:42.469Z,1.23
2017-10-08T03:21:10.705Z,1.20
2017-10-08T03:23:38.964Z,1.60
2017-10-08T03:26:07.230Z,1.20
2017-10-08T03:28:35.476Z,1.50
2017-10-08T03:31:03.721Z,1.10
2017-10-08T03:33:32.066Z,1.10
2017-10-08T03:36:00.302Z,0.90
2017-10-08T03:38:28.542Z,1.40
2017-10-08T03:40:56.818Z,1.03
2017-10-08T03:43:25.062Z,1.00
2017-10-08T03:45:53.306Z,1.10
2017-10-08T03:48:21.578Z,1.03
2017-10-08T03:50:49.839Z,1.10
2017-10-08T03:53:18.310Z,1.00
2017-10-08T03:55:47.232Z,1.00
2017-10-08T03:58:15.457Z,1.10
2017-10-08T04:00:44.466Z,1.03
2017-10-08T04:03:12.742Z,1.00
2017-10-08T04:05:41.000Z,1.07
2017-10-08T04:08:10.010Z,0.80
2017-10-08T04:10:38.280Z,1.10
2017-10-08T04:13:07.287Z,0.90
2017-10-08T04:15:35.531Z,1.00
2017-10-08T04:18:03.885Z,1.13
2017-10-08T04:20:32.130Z,0.83
2017-10-08T04:23:00.365Z,0.90
2017-10-08T04:25:28.634Z,0.90
2017-10-08T04:27:56.880Z,1.00
2017-10-08T04:30:25.120Z,1.40
2017-10-08T04:32:53.398Z,1.30
2017-10-08T04:35:21.769Z,1.07
2017-10-08T04:37:50.016Z,1.30
2017-10-08T04:40:18.874Z,1.30
2017-10-08T04:42:47.113Z,1.50
2017-10-08T04:45:15.358Z,1.00
2017-10-08T04:47:43.626Z,1.40
2017-10-08T04:50:11.871Z,1.10
2017-10-08T04:52:40.121Z,1.10
2017-10-08T04:55:08.585Z,1.30
2017-10-08T04:57:36.970Z,1.80
2017-10-08T05:00:05.195Z,1.23
2017-10-08T05:02:33.600Z,1.23
2017-10-08T05:05:01.834Z,1.33
2017-10-08T05:07:30.077Z,1.40
2017-10-08T05:09:59.102Z,1.20
2017-10-08T05:12:27.345Z,1.70
2017-10-08T05:14:55.786Z,1.87
2017-10-08T05:17:24.050Z,1.20
2017-10-08T05:19:52.305Z,1.30
2017-10-08T05:22:20.550Z,1.70
2017-10-08T05:24:49.089Z,1.70
2017-10-08T05:27:17.333Z,1.23
2017-10-08T05:29:45.589Z,1.40
2017-10-08T05:32:14.618Z,1.47
2017-10-08T05:34:42.858Z,1.60
2017-10-08T05:37:11.863Z,1.30
2017-10-08T05:39:40.134Z,1.33
2017-10-08T05:42:09.142Z,1.77
2017-10-08T05:44:37.386Z,1.50
2017-10-08T05:47:06.019Z,1.80
2017-10-08T05:49:34.258Z,1.30
2017-10-08T05:52:02.505Z,1.30
2017-10-08T05:54:30.770Z,1.50
2017-10-08T05:56:59.182Z,1.40
2017-10-08T05:59:28.186Z,1.50
2017-10-08T06:01:57.222Z,1.33
2017-10-08T06:04:25.695Z,1.83
2017-10-08T06:06:53.939Z,1.73
2017-10-08T06:09:23.157Z,2.30
2017-10-08T06:11:51.406Z,1.80
2017-10-08T06:14:19.655Z,2.40
2017-10-08T06:16:47.923Z,1.70
2017-10-08T06:19:16.163Z,2.10
2017-10-08T06:21:44.410Z,2.20
2017-10-08T06:24:12.681Z,1.90
2017-10-08T06:26:40.926Z,2.20
2017-10-08T06:29:09.203Z,2.30
2017-10-08T06:31:37.772Z,2.23
2017-10-08T06:34:06.014Z,1.90
2017-10-08T06:36:35.023Z,2.23
2017-10-08T06:39:03.294Z,2.40
2017-10-08T06:41:31.549Z,2.20
2017-10-08T06:44:00.549Z,1.77
2017-10-08T06:46:29.586Z,2.40
2017-10-08T06:48:57.826Z,2.37
2017-10-08T06:51:26.834Z,2.27
2017-10-08T06:53:55.149Z,1.80
2017-10-08T06:56:23.389Z,2.00
2017-10-08T06:58:51.665Z,1.97
2017-10-08T07:01:19.972Z,1.73
2017-10-08T07:03:48.225Z,2.10
2017-10-08T07:06:16.445Z,2.40
2017-10-08T07:08:44.711Z,2.10
2017-10-08T07:11:12.950Z,1.90
2017-10-08T07:13:41.203Z,1.70
2017-10-08T07:16:09.785Z,2.17
2017-10-08T07:18:38.802Z,2.20
2017-10-08T07:21:07.042Z,2.10
2017-10-08T07:23:35.310Z,1.80
2017-10-08T07:26:03.549Z,2.10
2017-10-08T07:28:31.790Z,2.03
2017-10-08T07:31:00.820Z,1.30
2017-10-08T07:33:29.059Z,1.93
2017-10-08T07:35:58.070Z,1.20
2017-10-08T07:38:26.778Z,1.20
2017-10-08T07:40:55.034Z,1.43
2017-10-08T07:43:23.262Z,1.70
2017-10-08T07:45:51.530Z,1.83
2017-10-08T07:48:19.766Z,1.63
2017-10-08T07:50:48.019Z,2.10
2017-10-08T07:53:17.046Z,2.03
2017-10-08T07:55:45.359Z,1.70
2017-10-08T07:58:13.601Z,2.30
2017-10-08T08:00:42.184Z,1.70
2017-10-08T08:03:10.422Z,2.10
2017-10-08T08:05:38.698Z,2.50
2017-10-08T08:08:06.970Z,1.83
2017-10-08T08:10:35.974Z,1.83
2017-10-08T08:13:04.986Z,2.40
2017-10-08T08:15:33.262Z,1.80
2017-10-08T08:18:01.510Z,2.27
2017-10-08T08:20:30.518Z,2.03
2017-10-08T08:22:59.750Z,2.10
2017-10-08T08:25:27.998Z,1.80
2017-10-08T08:27:56.257Z,1.70
2017-10-08T08:30:25.286Z,1.87
2017-10-08T08:32:53.530Z,2.47
2017-10-08T08:35:22.537Z,2.40
2017-10-08T08:37:50.811Z,1.97
2017-10-08T08:40:19.822Z,2.10
2017-10-08T08:42:48.073Z,1.93
2017-10-08T08:45:16.698Z,2.13
2017-10-08T08:47:44.943Z,2.50
2017-10-08T08:50:13.182Z,2.00
2017-10-08T08:52:41.494Z,2.60
2017-10-08T08:55:10.506Z,1.97
2017-10-08T08:57:38.964Z,1.67
2017-10-08T09:00:07.538Z,1.53
2017-10-08T09:02:35.954Z,2.10
2017-10-08T09:05:04.196Z,1.77
2017-10-08T09:07:32.725Z,1.70
2017-10-08T09:10:00.965Z,1.80
2017-10-08T09:12:29.982Z,1.70
2017-10-08T09:14:58.251Z,1.90
2017-10-08T09:17:26.501Z,1.80
2017-10-08T09:19:55.510Z,2.23
2017-10-08T09:22:24.541Z,2.23
2017-10-08T09:24:54.998Z,2.13
2017-10-08T09:27:23.242Z,2.30
2017-10-08T09:29:51.830Z,1.90
2017-10-08T09:32:20.070Z,2.30
2017-10-08T09:34:49.079Z,2.27
2017-10-08T09:37:17.345Z,2.43
2017-10-08T09:39:45.590Z,1.87
2017-10-08T09:42:13.834Z,2.10
2017-10-08T09:44:42.099Z,2.17
2017-10-08T09:47:10.342Z,2.07
2017-10-08T09:49:39.358Z,2.60
2017-10-08T09:52:07.695Z,2.00
2017-10-08T09:54:35.941Z,2.20
2017-10-08T09:57:04.182Z,1.90
2017-10-08T09:59:32.437Z,2.03
2017-10-08T10:02:00.691Z,2.40
2017-10-08T10:04:29.098Z,2.73
2017-10-08T10:06:58.135Z,2.43
2017-10-08T10:09:26.374Z,2.33
2017-10-08T10:11:54.627Z,1.90
2017-10-08T10:14:22.978Z,2.33
2017-10-08T10:16:51.198Z,2.00
2017-10-08T10:19:20.211Z,2.47
2017-10-08T10:21:48.470Z,2.00
2017-10-08T10:24:16.711Z,2.50
2017-10-08T10:26:44.949Z,2.30
2017-10-08T10:29:13.221Z,2.40
2017-10-08T10:31:41.474Z,2.40
2017-10-08T10:34:10.495Z,2.60
2017-10-08T10:36:39.401Z,2.10
2017-10-08T10:39:07.642Z,2.43
2017-10-08T10:41:36.650Z,2.37
2017-10-08T10:44:04.922Z,2.47
2017-10-08T10:46:33.175Z,3.50
2017-10-08T10:49:01.418Z,2.40
2017-10-08T10:51:29.689Z,1.83
2017-10-08T10:53:57.925Z,2.00
2017-10-08T10:56:26.430Z,2.53
2017-10-08T10:58:54.833Z,2.43
2017-10-08T11:01:23.071Z,2.40
2017-10-08T11:03:51.318Z,2.10
2017-10-08T11:06:19.833Z,2.10
2017-10-08T11:08:48.079Z,2.10
2017-10-08T11:11:16.318Z,2.10
2017-10-08T11:13:44.582Z,1.80
2017-10-08T11:16:12.826Z,2.13
2017-10-08T11:18:41.070Z,2.00
2017-10-08T11:21:09.813Z,2.50
2017-10-08T11:23:38.054Z,2.50
2017-10-08T11:26:07.103Z,2.17
2017-10-08T11:28:35.354Z,2.07
2017-10-08T11:31:03.594Z,2.00
2017-10-08T11:33:32.599Z,1.97
2017-10-08T11:36:01.694Z,2.40
2017-10-08T11:38:30.690Z,2.13
2017-10-08T11:40:58.970Z,2.50
2017-10-08T11:43:27.377Z,2.40
2017-10-08T11:45:55.624Z,2.17
2017-10-08T11:48:23.864Z,1.90
2017-10-08T11:50:52.245Z,1.63
2017-10-08T11:53:20.470Z,1.67
2017-10-08T11:55:48.714Z,2.20
2017-10-08T11:58:16.995Z,2.50
2017-10-08T12:00:45.998Z,1.33
2017-10-08T12:03:14.242Z,2.10
2017-10-08T12:05:42.703Z,1.80
2017-10-08T12:08:11.438Z,1.70
2017-10-08T12:10:40.575Z,2.00
2017-10-08T12:13:08.826Z,1.70
2017-10-08T12:15:37.066Z,1.77
2017-10-08T12:18:05.310Z,1.30
2017-10-08T12:20:33.595Z,1.90
2017-10-08T12:23:01.822Z,1.67
2017-10-08T12:25:30.830Z,1.90
2017-10-08T12:27:59.438Z,1.80
2017-10-08T12:30:27.686Z,1.30
2017-10-08T12:32:55.924Z,1.60
2017-10-08T12:35:24.190Z,1.60
2017-10-08T12:37:52.441Z,1.90
2017-10-08T12:40:20.677Z,2.00
2017-10-08T12:42:49.705Z,2.20
2017-10-08T12:45:17.951Z,1.80
2017-10-08T12:47:46.194Z,1.53
2017-10-08T12:50:14.849Z,1.90
2017-10-08T12:52:43.090Z,1.83
2017-10-08T12:55:11.330Z,1.80
2017-10-08T12:57:41.780Z,1.50
2017-10-08T13:00:10.814Z,2.07
2017-10-08T13:02:39.120Z,1.47
2017-10-08T13:05:11.532Z,1.37
2017-10-08T13:07:40.534Z,2.03
2017-10-08T13:10:08.784Z,1.50
2017-10-08T13:12:37.121Z,2.03
2017-10-08T13:15:05.387Z,1.60
2017-10-08T13:17:33.625Z,1.40
2017-10-08T13:20:01.891Z,1.87
2017-10-08T13:22:30.134Z,2.07
2017-10-08T13:24:58.541Z,2.70
2017-10-08T13:27:26.813Z,1.90
2017-10-08T13:29:55.102Z,2.00
2017-10-08T13:32:23.342Z,3.00
2017-10-08T13:34:51.667Z,2.67
2017-10-08T13:37:19.910Z,1.73
2017-10-08T13:39:48.216Z,2.40
2017-10-08T13:42:16.525Z,2.43
2017-10-08T13:44:45.570Z,2.20
2017-10-08T13:47:13.821Z,2.30
2017-10-08T13:49:42.100Z,2.37
2017-10-08T13:52:10.354Z,1.67
2017-10-08T13:54:38.598Z,1.50
2017-10-08T13:57:07.254Z,1.80
2017-10-08T13:59:35.806Z,2.07
2017-10-08T14:02:04.047Z,1.70
2017-10-08T14:04:32.331Z,2.07
2017-10-08T14:07:00.602Z,2.37
2017-10-08T14:09:29.689Z,1.90
2017-10-08T14:11:57.949Z,2.30
2017-10-08T14:14:26.261Z,2.10
2017-10-08T14:16:55.757Z,1.60
2017-10-08T14:19:24.883Z,2.10
2017-10-08T14:21:53.191Z,2.00
2017-10-08T14:24:21.429Z,2.17
2017-10-08T14:26:50.238Z,1.70
2017-10-08T14:29:18.482Z,1.53
2017-10-08T14:31:46.929Z,1.63
2017-10-08T14:34:15.193Z,1.77
2017-10-08T14:36:43.430Z,1.87
2017-10-08T14:39:11.746Z,2.10
2017-10-08T14:41:41.134Z,2.70
2017-10-08T14:44:09.430Z,1.50
2017-10-08T14:46:37.675Z,2.23
2017-10-08T14:49:06.078Z,1.30
2017-10-08T14:51:34.299Z,1.80
2017-10-08T14:54:03.462Z,1.70
2017-10-08T14:56:31.729Z,1.90
2017-10-08T14:58:59.983Z,2.07
2017-10-08T15:01:28.236Z,1.70
2017-10-08T15:03:56.842Z,1.73
2017-10-08T15:06:27.298Z,1.50
2017-10-08T15:08:55.559Z,1.70
2017-10-08T15:11:23.890Z,1.70
2017-10-08T15:13:52.170Z,1.50
2017-10-08T15:16:20.492Z,1.90
2017-10-08T15:18:48.758Z,2.10
2017-10-08T15:21:17.000Z,1.47
2017-10-08T15:23:45.245Z,2.37
2017-10-08T15:26:13.580Z,1.60
2017-10-08T15:28:41.855Z,2.10
2017-10-08T15:31:10.121Z,2.23
2017-10-08T15:33:38.622Z,2.40
2017-10-08T15:36:06.863Z,2.20
2017-10-08T15:38:35.874Z,2.30
2017-10-08T15:41:04.140Z,2.03
2017-10-08T15:43:32.378Z,2.40
2017-10-08T15:46:00.623Z,1.70
2017-10-08T15:48:28.963Z,1.90
2017-10-08T15:50:57.206Z,1.60
2017-10-08T15:53:25.458Z,2.47
2017-10-08T15:55:53.727Z,2.70
2017-10-08T15:58:22.051Z,2.27
2017-10-08T16:00:50.315Z,2.10
2017-10-08T16:03:18.583Z,2.00
2017-10-08T16:05:46.831Z,2.83
2017-10-08T16:08:15.070Z,2.47
2017-10-08T16:10:43.701Z,2.10
2017-10-08T16:13:11.943Z,2.10
2017-10-08T16:15:44.102Z,2.60
2017-10-08T16:18:13.126Z,2.37
2017-10-08T16:20:41.443Z,2.10
2017-10-08T16:23:12.927Z,2.17
2017-10-08T16:25:45.882Z,2.00
2017-10-08T16:28:14.870Z,1.80
2017-10-08T16:30:43.172Z,1.73
2017-10-08T16:33:12.443Z,2.10
2017-10-08T16:35:40.690Z,2.60
2017-10-08T16:38:08.938Z,2.00
2017-10-08T16:40:37.979Z,1.97
2017-10-08T16:43:06.255Z,2.20
2017-10-08T16:45:34.512Z,2.50
2017-10-08T16:48:02.755Z,3.23
2017-10-08T16:50:31.845Z,2.40
2017-10-08T16:53:00.942Z,2.30
2017-10-08T16:55:29.170Z,2.37
2017-10-08T16:57:58.546Z,2.90
2017-10-08T17:00:26.882Z,2.03
2017-10-08T17:02:55.307Z,2.43
2017-10-08T17:05:23.586Z,2.70
2017-10-08T17:07:52.022Z,4.03
2017-10-08T17:10:20.407Z,6.87
2017-10-08T17:12:48.954Z,7.47
2017-10-08T17:15:17.494Z,6.20
2017-10-08T17:17:46.528Z,3.23
2017-10-08T17:20:14.793Z,3.50
2017-10-08T17:22:43.234Z,3.53
2017-10-08T17:25:13.387Z,5.93
2017-10-08T17:27:42.224Z,3.23
2017-10-08T17:30:10.490Z,2.73
2017-10-08T17:32:38.767Z,2.87
2017-10-08T17:35:07.089Z,2.30
2017-10-08T17:37:36.448Z,2.90
2017-10-08T17:40:05.866Z,2.97
2017-10-08T17:42:34.272Z,2.70
2017-10-08T17:45:03.368Z,2.50
2017-10-08T17:47:31.654Z,3.17
2017-10-08T17:50:00.710Z,2.97
2017-10-08T17:52:28.955Z,2.63
2017-10-08T17:54:57.206Z,3.20
2017-10-08T17:57:25.578Z,2.77
2017-10-08T17:59:53.822Z,11.70
2017-10-08T18:02:22.082Z,23.50
2017-10-08T18:04:50.345Z,8.00
2017-10-08T18:07:18.596Z,7.00
2017-10-08T18:09:46.843Z,2.93
2017-10-08T18:12:15.119Z,2.90
2017-10-08T18:14:43.497Z,2.93
2017-10-08T18:17:12.519Z,2.80
2017-10-08T18:19:41.602Z,3.50
2017-10-08T18:22:09.846Z,3.10
2017-10-08T18:24:38.094Z,2.70
2017-10-08T18:27:06.402Z,2.70
2017-10-08T18:29:34.678Z,3.10
2017-10-08T18:32:02.953Z,2.90
2017-10-08T18:34:31.974Z,2.60
2017-10-08T18:37:01.000Z,2.90
2017-10-08T18:39:29.524Z,2.33
2017-10-08T18:41:57.885Z,2.83
2017-10-08T18:44:26.135Z,3.93
2017-10-08T18:46:58.554Z,4.03
2017-10-08T18:49:26.826Z,4.07
2017-10-08T18:51:55.077Z,3.50
2017-10-08T18:54:23.419Z,3.73
2017-10-08T18:56:52.454Z,3.60
2017-10-08T18:59:20.754Z,4.00
2017-10-08T19:01:49.018Z,3.10
2017-10-08T19:04:17.601Z,3.77
2017-10-08T19:06:45.842Z,3.90
2017-10-08T19:09:14.126Z,3.70
2017-10-08T19:11:42.440Z,4.83
2017-10-08T19:14:10.679Z,3.87
2017-10-08T19:16:39.550Z,4.00
2017-10-08T19:19:07.842Z,4.07
2017-10-08T19:21:36.095Z,4.67
2017-10-08T19:24:05.107Z,5.20
2017-10-08T19:26:33.946Z,5.37
2017-10-08T19:29:02.259Z,4.87
2017-10-08T19:31:31.370Z,4.67
2017-10-08T19:33:59.646Z,5.27
2017-10-08T19:36:27.886Z,5.00
2017-10-08T19:38:56.126Z,4.90
2017-10-08T19:41:24.709Z,4.30
2017-10-08T19:43:52.954Z,5.00
2017-10-08T19:46:21.197Z,4.60
2017-10-08T19:48:49.661Z,4.60
2017-10-08T19:51:17.898Z,4.33
2017-10-08T19:53:46.149Z,4.80
2017-10-08T19:56:14.425Z,5.13
2017-10-08T19:58:43.445Z,5.60
2017-10-08T20:01:11.686Z,7.77
2017-10-08T20:03:40.174Z,11.87
2017-10-08T20:06:09.225Z,8.30
2017-10-08T20:08:37.455Z,6.00
2017-10-08T20:11:05.970Z,4.20
2017-10-08T20:13:34.274Z,4.47
2017-10-08T20:16:02.543Z,5.07
2017-10-08T20:18:31.987Z,4.90
2017-10-08T20:21:00.994Z,4.73
2017-10-08T20:23:31.502Z,5.17
2017-10-08T20:25:59.886Z,5.30
2017-10-08T20:28:28.907Z,4.80
2017-10-08T20:30:58.158Z,4.77
2017-10-08T20:33:27.036Z,5.47
2017-10-08T20:35:55.265Z,5.50
2017-10-08T20:38:24.274Z,4.90
2017-10-08T20:40:52.542Z,4.40
2017-10-08T20:43:20.975Z,4.90
2017-10-08T20:45:49.217Z,4.43
2017-10-08T20:48:17.487Z,4.80
2017-10-08T20:50:45.726Z,4.43
2017-10-08T20:53:13.982Z,4.90
2017-10-08T20:55:42.344Z,3.90
2017-10-08T20:58:12.790Z,4.27
2017-10-08T21:00:41.034Z,5.27
2017-10-08T21:03:09.301Z,4.60
2017-10-08T21:05:37.618Z,4.90
2017-10-08T21:08:05.873Z,5.10
2017-10-08T21:10:34.133Z,5.13
2017-10-08T21:13:02.378Z,4.33
2017-10-08T21:15:31.407Z,4.67
2017-10-08T21:18:00.211Z,3.60
2017-10-08T21:20:28.450Z,3.33
2017-10-08T21:22:56.689Z,3.10
2017-10-08T21:25:24.962Z,2.70
2017-10-08T21:27:53.230Z,2.90
2017-10-08T21:30:21.499Z,2.70
2017-10-08T21:32:49.754Z,2.60
2017-10-08T21:35:17.993Z,2.60
2017-10-08T21:37:47.045Z,3.50
2017-10-08T21:40:15.350Z,3.73
2017-10-08T21:42:43.590Z,3.40
2017-10-08T21:45:11.834Z,3.00
2017-10-08T21:47:40.254Z,2.80
2017-10-08T21:50:08.479Z,2.77
2017-10-08T21:52:37.489Z,2.83
2017-10-08T21:55:05.758Z,3.40
2017-10-08T21:57:33.994Z,2.50
2017-10-08T22:00:02.234Z,3.03
2017-10-08T22:02:30.724Z,3.30
2017-10-08T22:04:58.970Z,3.30
2017-10-08T22:07:27.219Z,3.13
2017-10-08T22:09:55.511Z,3.73
2017-10-08T22:12:23.734Z,2.80
2017-10-08T22:14:51.974Z,3.53
2017-10-08T22:17:20.235Z,2.90
2017-10-08T22:19:49.638Z,2.93
2017-10-08T22:22:18.654Z,2.90
2017-10-08T22:24:47.363Z,3.27
2017-10-08T22:27:15.615Z,3.00
2017-10-08T22:29:43.862Z,2.90
2017-10-08T22:32:12.894Z,3.20
2017-10-08T22:34:41.138Z,2.80
2017-10-08T22:37:10.138Z,2.83
2017-10-08T22:39:39.171Z,3.23
2017-10-08T22:42:07.410Z,3.10
2017-10-08T22:44:36.422Z,2.83
2017-10-08T22:47:04.919Z,3.40
2017-10-08T22:49:33.158Z,3.50
2017-10-08T22:52:02.170Z,3.20
2017-10-08T22:54:30.433Z,3.50
2017-10-08T22:56:59.447Z,3.17
2017-10-08T22:59:27.688Z,3.27
2017-10-08T23:01:56.721Z,3.13
2017-10-08T23:04:24.961Z,3.33
2017-10-08T23:06:53.202Z,3.50
2017-10-08T23:09:21.685Z,3.70
2017-10-08T23:11:49.922Z,3.83
2017-10-08T23:14:18.170Z,3.50
2017-10-08T23:16:47.267Z,3.83
2017-10-08T23:19:15.490Z,3.57
2017-10-08T23:21:44.033Z,3.83
2017-10-08T23:24:13.070Z,3.70
2017-10-08T23:26:41.432Z,4.37
2017-10-08T23:29:09.682Z,3.47
2017-10-08T23:31:38.370Z,3.87
2017-10-08T23:34:07.381Z,3.40
2017-10-08T23:36:35.630Z,3.17
2017-10-08T23:39:03.894Z,2.97
2017-10-08T23:41:32.135Z,4.20
2017-10-08T23:44:00.374Z,3.60
2017-10-08T23:46:29.403Z,3.37
2017-10-08T23:48:57.642Z,3.90
2017-10-08T23:51:26.655Z,4.00
2017-10-08T23:53:55.154Z,3.93
2017-10-08T23:56:23.393Z,3.50
2017-10-08T23:58:52.398Z,3.23
